Lester B. Pearson International Airport (YYZ/CYYZ)





Airport Information
Location: Toronto,
Coordinates: 43.6767 / -79.6306
Field Elevation: 543ft
Longest Runway: 11,116ft
ILS Approaches: YES
Landing Fees: $5,376 per flight
Jet A Price: $0.26/lbs

Current Weather
METAR:
Not available
TAF: TAF CYYZ 191139Z 1912/2018 27005KT P6SM FEW040 BKN260 BECMG 1915/1917 27015G25KT FM192000 32012KT P6SM SCT080 BKN120 FM200000 36008KT P6SM BKN080 BECMG 2000/2002 VRB03KT FM200900 VRB03KT P6SM SCT060 BECMG 2013/2015 16010KT RMK NXT FCST BY 191500Z

Recent Arrivals
Date Flight Type Depart
11/12/2020 CPX366 B763 Washington Dulles International Airport (KIAD)
09/23/2020 CPX366 B763 Washington Dulles International Airport (KIAD)
03/26/2020 CPX366 B763 Washington Dulles International Airport (KIAD)
03/01/2020 CPX366 B763 Washington Dulles International Airport (KIAD)
11/04/2019 CPX366 B763 Washington Dulles International Airport (KIAD)
06/18/2019 CPX366 B763 Washington Dulles International Airport (KIAD)
Recent Departures
Date Flight Type Arrive
01/30/2021 CPX330 B763 Washington Dulles International Airport (KIAD)
09/23/2020 CPX330 B763 Washington Dulles International Airport (KIAD)
03/26/2020 CPX330 B763 Washington Dulles International Airport (KIAD)
03/01/2020 CPX330 B763 Washington Dulles International Airport (KIAD)
11/05/2019 CPX330 B763 Washington Dulles International Airport (KIAD)
06/26/2019 CPX330 B763 Washington Dulles International Airport (KIAD)